sensor_id;sensor_type;location;lat;lon;timestamp;temperature;humidity
44843;DHT22;31884;52.538;13.820;2022-10-17T00:02:14;11.00;99.90
44843;DHT22;31884;52.538;13.820;2022-10-17T00:04:40;11.00;99.90
44843;DHT22;31884;52.538;13.820;2022-10-17T00:07:05;11.10;99.90
44843;DHT22;31884;52.538;13.820;2022-10-17T00:09:30;11.10;99.90
44843;DHT22;31884;52.538;13.820;2022-10-17T00:11:56;11.10;99.90
44843;DHT22;31884;52.538;13.820;2022-10-17T00:14:21;11.20;99.90
44843;DHT22;31884;52.538;13.820;2022-10-17T00:16:47;11.20;99.90
44843;DHT22;31884;52.538;13.820;2022-10-17T00:19:12;11.30;99.90
44843;DHT22;31884;52.538;13.820;2022-10-17T00:21:38;11.30;99.90
44843;DHT22;31884;52.538;13.820;2022-10-17T00:24:04;11.30;99.90
44843;DHT22;31884;52.538;13.820;2022-10-17T00:26:29;11.40;99.90
44843;DHT22;31884;52.538;13.820;2022-10-17T00:28:55;11.40;99.90
44843;DHT22;31884;52.538;13.820;2022-10-17T00:31:22;11.40;99.90
44843;DHT22;31884;52.538;13.820;2022-10-17T00:33:48;11.40;99.90
44843;DHT22;31884;52.538;13.820;2022-10-17T00:36:16;11.50;99.90
44843;DHT22;31884;52.538;13.820;2022-10-17T00:38:44;11.50;99.90
44843;DHT22;31884;52.538;13.820;2022-10-17T00:41:12;11.50;99.90
44843;DHT22;31884;52.538;13.820;2022-10-17T00:46:37;11.50;99.90
44843;DHT22;31884;52.538;13.820;2022-10-17T00:49:08;11.50;99.90
44843;DHT22;31884;52.538;13.820;2022-10-17T00:51:43;11.50;99.90
44843;DHT22;31884;52.538;13.820;2022-10-17T00:54:10;11.50;99.90
44843;DHT22;31884;52.538;13.820;2022-10-17T00:56:38;11.50;99.90
44843;DHT22;31884;52.538;13.820;2022-10-17T00:59:05;11.40;99.90
44843;DHT22;31884;52.538;13.820;2022-10-17T01:01:33;11.40;99.90
44843;DHT22;31884;52.538;13.820;2022-10-17T01:03:59;11.40;99.90
44843;DHT22;31884;52.538;13.820;2022-10-17T01:06:24;11.30;99.90
44843;DHT22;31884;52.538;13.820;2022-10-17T01:08:50;11.20;99.90
44843;DHT22;31884;52.538;13.820;2022-10-17T01:11:31;11.20;99.90
44843;DHT22;31884;52.538;13.820;2022-10-17T01:17:00;11.20;99.90
44843;DHT22;31884;52.538;13.820;2022-10-17T01:22:50;11.30;99.90
44843;DHT22;31884;52.538;13.820;2022-10-17T01:25:54;11.30;99.90
44843;DHT22;31884;52.538;13.820;2022-10-17T01:31:12;11.40;99.90
44843;DHT22;31884;52.538;13.820;2022-10-17T01:34:14;11.40;99.90
44843;DHT22;31884;52.538;13.820;2022-10-17T01:36:58;11.40;99.90
44843;DHT22;31884;52.538;13.820;2022-10-17T01:39:36;11.40;99.90
44843;DHT22;31884;52.538;13.820;2022-10-17T01:42:17;11.50;99.90
44843;DHT22;31884;52.538;13.820;2022-10-17T01:44:59;11.50;99.90
44843;DHT22;31884;52.538;13.820;2022-10-17T01:47:28;11.50;99.90
44843;DHT22;31884;52.538;13.820;2022-10-17T01:49:59;11.50;99.90
44843;DHT22;31884;52.538;13.820;2022-10-17T01:52:31;11.40;99.90
44843;DHT22;31884;52.538;13.820;2022-10-17T01:55:05;11.30;99.90
44843;DHT22;31884;52.538;13.820;2022-10-17T01:57:38;11.20;99.90
44843;DHT22;31884;52.538;13.820;2022-10-17T02:00:08;11.10;99.90
44843;DHT22;31884;52.538;13.820;2022-10-17T02:02:35;11.10;99.90
44843;DHT22;31884;52.538;13.820;2022-10-17T02:05:02;11.10;99.90
44843;DHT22;31884;52.538;13.820;2022-10-17T02:07:28;11.00;99.90
44843;DHT22;31884;52.538;13.820;2022-10-17T02:09:53;11.00;99.90
44843;DHT22;31884;52.538;13.820;2022-10-17T02:15:19;10.90;99.90
44843;DHT22;31884;52.538;13.820;2022-10-17T02:20:59;10.80;99.90
44843;DHT22;31884;52.538;13.820;2022-10-17T02:24:02;10.80;99.90
44843;DHT22;31884;52.538;13.820;2022-10-17T02:26:43;10.70;99.90
44843;DHT22;31884;52.538;13.820;2022-10-17T02:29:21;10.70;99.90
44843;DHT22;31884;52.538;13.820;2022-10-17T02:32:08;10.70;99.90
44843;DHT22;31884;52.538;13.820;2022-10-17T02:34:48;10.70;99.90
44843;DHT22;31884;52.538;13.820;2022-10-17T02:37:18;10.70;99.90
44843;DHT22;31884;52.538;13.820;2022-10-17T02:39:45;10.60;99.90
44843;DHT22;31884;52.538;13.820;2022-10-17T02:42:13;10.70;99.90
44843;DHT22;31884;52.538;13.820;2022-10-17T02:44:42;10.60;99.90
44843;DHT22;31884;52.538;13.820;2022-10-17T02:49:39;10.60;99.90
44843;DHT22;31884;52.538;13.820;2022-10-17T02:52:13;10.60;99.90
44843;DHT22;31884;52.538;13.820;2022-10-17T02:54:44;10.60;99.90
44843;DHT22;31884;52.538;13.820;2022-10-17T02:57:38;10.60;99.90
44843;DHT22;31884;52.538;13.820;2022-10-17T03:00:06;10.70;99.90
44843;DHT22;31884;52.538;13.820;2022-10-17T03:02:44;10.70;99.90
44843;DHT22;31884;52.538;13.820;2022-10-17T03:05:13;10.80;99.90
44843;DHT22;31884;52.538;13.820;2022-10-17T03:07:39;11.00;99.90
44843;DHT22;31884;52.538;13.820;2022-10-17T03:10:05;11.10;99.90
44843;DHT22;31884;52.538;13.820;2022-10-17T03:12:30;11.10;99.90
44843;DHT22;31884;52.538;13.820;2022-10-17T03:14:56;11.10;99.90
44843;DHT22;31884;52.538;13.820;2022-10-17T03:17:21;11.20;99.90
44843;DHT22;31884;52.538;13.820;2022-10-17T03:19:47;11.30;99.90
44843;DHT22;31884;52.538;13.820;2022-10-17T03:22:12;11.40;99.90
44843;DHT22;31884;52.538;13.820;2022-10-17T03:24:38;11.60;99.90
44843;DHT22;31884;52.538;13.820;2022-10-17T03:27:03;11.70;99.90
44843;DHT22;31884;52.538;13.820;2022-10-17T03:29:29;11.80;99.90
44843;DHT22;31884;52.538;13.820;2022-10-17T03:31:54;11.90;99.90
44843;DHT22;31884;52.538;13.820;2022-10-17T03:34:20;11.90;99.90
44843;DHT22;31884;52.538;13.820;2022-10-17T03:36:46;12.00;99.90
44843;DHT22;31884;52.538;13.820;2022-10-17T03:39:11;12.00;99.90
44843;DHT22;31884;52.538;13.820;2022-10-17T03:41:37;12.00;99.90
44843;DHT22;31884;52.538;13.820;2022-10-17T03:44:02;12.10;99.90
44843;DHT22;31884;52.538;13.820;2022-10-17T03:46:28;12.10;99.90
44843;DHT22;31884;52.538;13.820;2022-10-17T03:48:53;12.10;99.90
44843;DHT22;31884;52.538;13.820;2022-10-17T03:51:19;12.10;99.90
44843;DHT22;31884;52.538;13.820;2022-10-17T03:53:44;12.10;99.90
44843;DHT22;31884;52.538;13.820;2022-10-17T03:56:20;12.20;99.90
44843;DHT22;31884;52.538;13.820;2022-10-17T03:58:46;12.20;99.90
44843;DHT22;31884;52.538;13.820;2022-10-17T04:01:13;12.20;99.90
44843;DHT22;31884;52.538;13.820;2022-10-17T04:03:39;12.20;99.90
44843;DHT22;31884;52.538;13.820;2022-10-17T04:06:05;12.40;99.90
44843;DHT22;31884;52.538;13.820;2022-10-17T04:08:32;12.30;99.90
44843;DHT22;31884;52.538;13.820;2022-10-17T04:11:07;12.40;99.90
44843;DHT22;31884;52.538;13.820;2022-10-17T04:13:33;12.40;99.90
44843;DHT22;31884;52.538;13.820;2022-10-17T04:16:02;12.40;99.90
44843;DHT22;31884;52.538;13.820;2022-10-17T04:18:29;12.50;99.90
44843;DHT22;31884;52.538;13.820;2022-10-17T04:20:55;12.50;99.90
44843;DHT22;31884;52.538;13.820;2022-10-17T04:23:20;12.60;99.90
44843;DHT22;31884;52.538;13.820;2022-10-17T04:25:46;12.50;99.90
44843;DHT22;31884;52.538;13.820;2022-10-17T04:28:11;12.60;99.90
44843;DHT22;31884;52.538;13.820;2022-10-17T04:30:37;12.60;99.90
44843;DHT22;31884;52.538;13.820;2022-10-17T04:33:03;12.70;99.90
44843;DHT22;31884;52.538;13.820;2022-10-17T04:35:29;12.70;99.90
44843;DHT22;31884;52.538;13.820;2022-10-17T04:37:54;12.70;99.90
44843;DHT22;31884;52.538;13.820;2022-10-17T04:40:20;12.70;99.90
44843;DHT22;31884;52.538;13.820;2022-10-17T04:42:46;12.60;99.90
44843;DHT22;31884;52.538;13.820;2022-10-17T04:45:12;12.70;99.90
44843;DHT22;31884;52.538;13.820;2022-10-17T04:47:37;12.70;99.90
44843;DHT22;31884;52.538;13.820;2022-10-17T04:50:03;12.70;99.90
44843;DHT22;31884;52.538;13.820;2022-10-17T04:52:29;12.60;99.90
44843;DHT22;31884;52.538;13.820;2022-10-17T04:54:56;12.70;99.90
44843;DHT22;31884;52.538;13.820;2022-10-17T04:57:21;12.70;99.90
44843;DHT22;31884;52.538;13.820;2022-10-17T04:59:47;12.70;99.90
44843;DHT22;31884;52.538;13.820;2022-10-17T05:02:12;12.70;99.90
44843;DHT22;31884;52.538;13.820;2022-10-17T05:04:38;12.70;99.90
44843;DHT22;31884;52.538;13.820;2022-10-17T05:07:03;12.70;99.90
44843;DHT22;31884;52.538;13.820;2022-10-17T05:09:29;12.70;99.90
44843;DHT22;31884;52.538;13.820;2022-10-17T05:11:54;12.70;99.90
44843;DHT22;31884;52.538;13.820;2022-10-17T05:14:20;12.70;99.90
44843;DHT22;31884;52.538;13.820;2022-10-17T05:16:46;12.70;99.90
44843;DHT22;31884;52.538;13.820;2022-10-17T05:19:11;12.70;99.90
44843;DHT22;31884;52.538;13.820;2022-10-17T05:21:37;12.70;99.90
44843;DHT22;31884;52.538;13.820;2022-10-17T05:24:10;12.70;99.90
44843;DHT22;31884;52.538;13.820;2022-10-17T05:26:36;12.60;99.90
44843;DHT22;31884;52.538;13.820;2022-10-17T05:29:02;12.70;99.90
44843;DHT22;31884;52.538;13.820;2022-10-17T05:31:28;12.70;99.90
44843;DHT22;31884;52.538;13.820;2022-10-17T05:33:55;12.70;99.90
44843;DHT22;31884;52.538;13.820;2022-10-17T05:36:20;12.70;99.90
44843;DHT22;31884;52.538;13.820;2022-10-17T05:38:50;12.70;99.90
44843;DHT22;31884;52.538;13.820;2022-10-17T05:41:16;12.60;99.90
44843;DHT22;31884;52.538;13.820;2022-10-17T05:43:41;12.70;99.90
44843;DHT22;31884;52.538;13.820;2022-10-17T05:46:08;12.70;99.90
44843;DHT22;31884;52.538;13.820;2022-10-17T05:48:34;12.70;99.90
44843;DHT22;31884;52.538;13.820;2022-10-17T05:51:02;12.70;99.90
44843;DHT22;31884;52.538;13.820;2022-10-17T05:53:32;12.70;99.90
44843;DHT22;31884;52.538;13.820;2022-10-17T05:56:03;12.70;99.90
44843;DHT22;31884;52.538;13.820;2022-10-17T05:58:29;12.70;99.90
44843;DHT22;31884;52.538;13.820;2022-10-17T06:00:59;12.70;99.90
44843;DHT22;31884;52.538;13.820;2022-10-17T06:03:25;12.70;99.90
44843;DHT22;31884;52.538;13.820;2022-10-17T06:05:51;12.80;99.90
44843;DHT22;31884;52.538;13.820;2022-10-17T06:08:17;12.80;99.90
44843;DHT22;31884;52.538;13.820;2022-10-17T06:10:42;12.80;99.90
44843;DHT22;31884;52.538;13.820;2022-10-17T06:13:08;12.80;99.90
44843;DHT22;31884;52.538;13.820;2022-10-17T06:15:33;12.90;99.90
44843;DHT22;31884;52.538;13.820;2022-10-17T06:17:58;13.00;99.90
44843;DHT22;31884;52.538;13.820;2022-10-17T06:20:24;13.10;99.90
44843;DHT22;31884;52.538;13.820;2022-10-17T06:22:49;13.20;99.90
44843;DHT22;31884;52.538;13.820;2022-10-17T06:25:15;13.40;99.90
44843;DHT22;31884;52.538;13.820;2022-10-17T06:27:40;13.70;99.90
44843;DHT22;31884;52.538;13.820;2022-10-17T06:30:06;14.10;99.90
44843;DHT22;31884;52.538;13.820;2022-10-17T06:32:32;14.40;99.90
44843;DHT22;31884;52.538;13.820;2022-10-17T06:34:57;14.60;99.90
44843;DHT22;31884;52.538;13.820;2022-10-17T06:37:23;14.80;99.90
44843;DHT22;31884;52.538;13.820;2022-10-17T06:39:48;15.10;99.90
44843;DHT22;31884;52.538;13.820;2022-10-17T06:42:14;15.30;99.90
44843;DHT22;31884;52.538;13.820;2022-10-17T06:44:39;15.40;99.90
44843;DHT22;31884;52.538;13.820;2022-10-17T06:47:05;15.50;99.90
44843;DHT22;31884;52.538;13.820;2022-10-17T06:49:31;15.70;99.90
44843;DHT22;31884;52.538;13.820;2022-10-17T06:51:58;15.60;99.90
44843;DHT22;31884;52.538;13.820;2022-10-17T06:54:24;15.70;99.90
44843;DHT22;31884;52.538;13.820;2022-10-17T06:56:49;15.70;99.90
44843;DHT22;31884;52.538;13.820;2022-10-17T06:59:15;15.60;99.90
44843;DHT22;31884;52.538;13.820;2022-10-17T07:01:41;15.60;99.90
44843;DHT22;31884;52.538;13.820;2022-10-17T07:04:07;15.60;99.90
44843;DHT22;31884;52.538;13.820;2022-10-17T07:06:32;15.60;99.90
44843;DHT22;31884;52.538;13.820;2022-10-17T07:08:58;15.60;99.90
44843;DHT22;31884;52.538;13.820;2022-10-17T07:11:25;15.60;99.90
44843;DHT22;31884;52.538;13.820;2022-10-17T07:13:50;15.70;99.90
44843;DHT22;31884;52.538;13.820;2022-10-17T07:16:16;15.70;99.90
44843;DHT22;31884;52.538;13.820;2022-10-17T07:18:42;15.80;99.90
44843;DHT22;31884;52.538;13.820;2022-10-17T07:21:08;15.90;99.90
44843;DHT22;31884;52.538;13.820;2022-10-17T07:23:37;15.90;99.90
44843;DHT22;31884;52.538;13.820;2022-10-17T07:26:05;16.00;99.90
44843;DHT22;31884;52.538;13.820;2022-10-17T07:28:32;16.10;99.90
44843;DHT22;31884;52.538;13.820;2022-10-17T07:31:10;16.30;99.90
44843;DHT22;31884;52.538;13.820;2022-10-17T07:33:36;16.60;99.90
44843;DHT22;31884;52.538;13.820;2022-10-17T07:36:03;16.80;99.90
44843;DHT22;31884;52.538;13.820;2022-10-17T07:38:29;17.00;99.90
44843;DHT22;31884;52.538;13.820;2022-10-17T07:40:57;17.20;99.90
44843;DHT22;31884;52.538;13.820;2022-10-17T07:43:24;17.40;99.90
44843;DHT22;31884;52.538;13.820;2022-10-17T07:45:50;17.50;99.90
44843;DHT22;31884;52.538;13.820;2022-10-17T07:48:16;17.60;99.90
44843;DHT22;31884;52.538;13.820;2022-10-17T07:50:42;17.70;99.90
44843;DHT22;31884;52.538;13.820;2022-10-17T07:53:08;17.80;99.90
44843;DHT22;31884;52.538;13.820;2022-10-17T07:55:35;18.00;99.90
44843;DHT22;31884;52.538;13.820;2022-10-17T07:58:01;18.10;99.90
44843;DHT22;31884;52.538;13.820;2022-10-17T08:00:26;18.20;99.90
44843;DHT22;31884;52.538;13.820;2022-10-17T08:02:52;18.40;99.90
44843;DHT22;31884;52.538;13.820;2022-10-17T08:05:17;18.50;99.90
44843;DHT22;31884;52.538;13.820;2022-10-17T08:07:43;18.70;99.90
44843;DHT22;31884;52.538;13.820;2022-10-17T08:10:11;18.90;99.90
44843;DHT22;31884;52.538;13.820;2022-10-17T08:12:37;19.10;99.90
44843;DHT22;31884;52.538;13.820;2022-10-17T08:15:03;19.30;99.90
44843;DHT22;31884;52.538;13.820;2022-10-17T08:17:29;19.50;99.90
44843;DHT22;31884;52.538;13.820;2022-10-17T08:19:55;19.70;99.90
44843;DHT22;31884;52.538;13.820;2022-10-17T08:22:20;19.90;99.90
44843;DHT22;31884;52.538;13.820;2022-10-17T08:24:46;20.00;99.90
44843;DHT22;31884;52.538;13.820;2022-10-17T08:27:12;20.10;99.90
44843;DHT22;31884;52.538;13.820;2022-10-17T08:29:41;20.20;99.90
44843;DHT22;31884;52.538;13.820;2022-10-17T08:32:07;20.40;99.90
44843;DHT22;31884;52.538;13.820;2022-10-17T08:34:34;20.40;99.90
44843;DHT22;31884;52.538;13.820;2022-10-17T08:36:59;20.50;99.90
44843;DHT22;31884;52.538;13.820;2022-10-17T08:39:25;20.60;99.90
44843;DHT22;31884;52.538;13.820;2022-10-17T08:42:30;20.60;99.90
44843;DHT22;31884;52.538;13.820;2022-10-17T08:45:29;20.70;99.90
44843;DHT22;31884;52.538;13.820;2022-10-17T08:47:58;20.90;99.90
44843;DHT22;31884;52.538;13.820;2022-10-17T08:53:05;20.90;96.80
44843;DHT22;31884;52.538;13.820;2022-10-17T08:55:36;21.00;99.90
44843;DHT22;31884;52.538;13.820;2022-10-17T08:58:06;21.00;99.90
44843;DHT22;31884;52.538;13.820;2022-10-17T09:00:35;21.10;99.90
44843;DHT22;31884;52.538;13.820;2022-10-17T09:05:50;21.50;98.90
44843;DHT22;31884;52.538;13.820;2022-10-17T09:08:45;21.60;98.30
44843;DHT22;31884;52.538;13.820;2022-10-17T09:16:52;21.90;95.20
44843;DHT22;31884;52.538;13.820;2022-10-17T09:19:23;22.00;96.70
44843;DHT22;31884;52.538;13.820;2022-10-17T09:22:00;22.00;98.20
44843;DHT22;31884;52.538;13.820;2022-10-17T09:24:48;22.20;96.30
44843;DHT22;31884;52.538;13.820;2022-10-17T09:29:48;22.30;94.50
44843;DHT22;31884;52.538;13.820;2022-10-17T09:32:18;22.40;93.70
44843;DHT22;31884;52.538;13.820;2022-10-17T09:34:45;22.40;86.60
44843;DHT22;31884;52.538;13.820;2022-10-17T09:37:13;22.40;90.40
44843;DHT22;31884;52.538;13.820;2022-10-17T09:39:39;22.40;90.20
44843;DHT22;31884;52.538;13.820;2022-10-17T09:42:11;22.40;89.60
44843;DHT22;31884;52.538;13.820;2022-10-17T09:44:46;22.30;83.30
44843;DHT22;31884;52.538;13.820;2022-10-17T09:47:23;22.30;86.80
44843;DHT22;31884;52.538;13.820;2022-10-17T09:49:50;22.30;88.70
44843;DHT22;31884;52.538;13.820;2022-10-17T09:52:23;22.30;89.60
44843;DHT22;31884;52.538;13.820;2022-10-17T09:54:53;22.40;83.10
44843;DHT22;31884;52.538;13.820;2022-10-17T09:57:20;22.30;87.30
44843;DHT22;31884;52.538;13.820;2022-10-17T10:00:02;22.30;85.10
44843;DHT22;31884;52.538;13.820;2022-10-17T10:02:29;22.30;86.80
44843;DHT22;31884;52.538;13.820;2022-10-17T10:05:02;22.30;85.00
44843;DHT22;31884;52.538;13.820;2022-10-17T10:07:31;22.30;86.30
44843;DHT22;31884;52.538;13.820;2022-10-17T10:09:58;22.30;84.90
44843;DHT22;31884;52.538;13.820;2022-10-17T10:12:30;22.20;81.30
44843;DHT22;31884;52.538;13.820;2022-10-17T10:14:57;22.20;83.30
44843;DHT22;31884;52.538;13.820;2022-10-17T10:19:53;22.10;84.70
44843;DHT22;31884;52.538;13.820;2022-10-17T10:22:20;22.10;85.90
44843;DHT22;31884;52.538;13.820;2022-10-17T10:25:15;22.10;84.10
44843;DHT22;31884;52.538;13.820;2022-10-17T10:27:45;22.10;80.40
44843;DHT22;31884;52.538;13.820;2022-10-17T10:30:20;22.00;82.20
44843;DHT22;31884;52.538;13.820;2022-10-17T10:32:48;22.10;83.50
44843;DHT22;31884;52.538;13.820;2022-10-17T10:35:23;22.10;84.50
44843;DHT22;31884;52.538;13.820;2022-10-17T10:37:55;22.20;82.70
44843;DHT22;31884;52.538;13.820;2022-10-17T10:40:54;22.20;82.70
44843;DHT22;31884;52.538;13.820;2022-10-17T10:43:25;22.20;79.60
44843;DHT22;31884;52.538;13.820;2022-10-17T10:45:54;22.30;82.80
44843;DHT22;31884;52.538;13.820;2022-10-17T10:48:21;22.30;81.60
44843;DHT22;31884;52.538;13.820;2022-10-17T10:50:55;22.40;82.00
44843;DHT22;31884;52.538;13.820;2022-10-17T10:53:37;22.50;82.20
44843;DHT22;31884;52.538;13.820;2022-10-17T10:56:17;22.50;81.20
44843;DHT22;31884;52.538;13.820;2022-10-17T11:04:27;22.80;79.50
44843;DHT22;31884;52.538;13.820;2022-10-17T11:10:11;22.90;76.20
44843;DHT22;31884;52.538;13.820;2022-10-17T11:12:51;22.90;76.60
44843;DHT22;31884;52.538;13.820;2022-10-17T11:15:32;22.90;76.80
44843;DHT22;31884;52.538;13.820;2022-10-17T11:18:06;22.90;71.90
44843;DHT22;31884;52.538;13.820;2022-10-17T11:20:47;22.90;75.50
44843;DHT22;31884;52.538;13.820;2022-10-17T11:25:56;22.80;75.50
44843;DHT22;31884;52.538;13.820;2022-10-17T11:28:23;22.80;77.00
44843;DHT22;31884;52.538;13.820;2022-10-17T11:31:05;22.80;77.20
44843;DHT22;31884;52.538;13.820;2022-10-17T11:33:49;22.80;76.50
44843;DHT22;31884;52.538;13.820;2022-10-17T11:36:19;22.70;76.00
44843;DHT22;31884;52.538;13.820;2022-10-17T11:39:03;22.80;75.50
44843;DHT22;31884;52.538;13.820;2022-10-17T11:41:46;22.80;75.10
44843;DHT22;31884;52.538;13.820;2022-10-17T11:44:35;22.80;75.50
44843;DHT22;31884;52.538;13.820;2022-10-17T11:49:50;22.80;72.70
44843;DHT22;31884;52.538;13.820;2022-10-17T11:54:52;22.80;75.10
44843;DHT22;31884;52.538;13.820;2022-10-17T11:57:43;22.80;74.20
44843;DHT22;31884;52.538;13.820;2022-10-17T12:03:47;22.80;73.50
44843;DHT22;31884;52.538;13.820;2022-10-17T12:12:05;22.90;74.10
44843;DHT22;31884;52.538;13.820;2022-10-17T12:14:36;22.90;73.90
44843;DHT22;31884;52.538;13.820;2022-10-17T12:17:04;23.00;73.00
44843;DHT22;31884;52.538;13.820;2022-10-17T12:19:35;23.00;73.90
44843;DHT22;31884;52.538;13.820;2022-10-17T12:22:04;23.00;73.60
44843;DHT22;31884;52.538;13.820;2022-10-17T12:24:33;23.00;74.30
44843;DHT22;31884;52.538;13.820;2022-10-17T12:29:46;23.10;72.90
44843;DHT22;31884;52.538;13.820;2022-10-17T12:32:13;23.10;72.50
44843;DHT22;31884;52.538;13.820;2022-10-17T12:34:39;23.20;73.00
44843;DHT22;31884;52.538;13.820;2022-10-17T12:37:14;23.20;73.80
44843;DHT22;31884;52.538;13.820;2022-10-17T12:40:00;23.30;73.60
44843;DHT22;31884;52.538;13.820;2022-10-17T12:42:30;23.50;72.70
44843;DHT22;31884;52.538;13.820;2022-10-17T12:44:56;23.60;72.80
44843;DHT22;31884;52.538;13.820;2022-10-17T12:47:28;23.70;72.10
44843;DHT22;31884;52.538;13.820;2022-10-17T12:50:00;23.70;71.10
44843;DHT22;31884;52.538;13.820;2022-10-17T12:52:54;23.80;71.20
44843;DHT22;31884;52.538;13.820;2022-10-17T12:55:23;23.80;65.80
44843;DHT22;31884;52.538;13.820;2022-10-17T12:58:09;23.70;65.90
44843;DHT22;31884;52.538;13.820;2022-10-17T13:03:17;23.60;66.30
44843;DHT22;31884;52.538;13.820;2022-10-17T13:05:47;23.60;66.30
44843;DHT22;31884;52.538;13.820;2022-10-17T13:08:18;23.60;65.50
44843;DHT22;31884;52.538;13.820;2022-10-17T13:10:48;23.50;65.90
44843;DHT22;31884;52.538;13.820;2022-10-17T13:13:23;23.60;67.90
44843;DHT22;31884;52.538;13.820;2022-10-17T13:15:52;23.50;67.20
44843;DHT22;31884;52.538;13.820;2022-10-17T13:18:24;23.50;67.70
44843;DHT22;31884;52.538;13.820;2022-10-17T13:21:05;23.50;67.70
44843;DHT22;31884;52.538;13.820;2022-10-17T13:23:36;23.40;66.60
44843;DHT22;31884;52.538;13.820;2022-10-17T13:26:23;23.30;68.10
44843;DHT22;31884;52.538;13.820;2022-10-17T13:29:04;23.30;66.10
44843;DHT22;31884;52.538;13.820;2022-10-17T13:31:32;23.30;66.00
44843;DHT22;31884;52.538;13.820;2022-10-17T13:34:00;23.30;67.70
44843;DHT22;31884;52.538;13.820;2022-10-17T13:36:27;23.30;68.80
44843;DHT22;31884;52.538;13.820;2022-10-17T13:38:53;23.30;68.30
44843;DHT22;31884;52.538;13.820;2022-10-17T13:41:24;23.20;68.80
44843;DHT22;31884;52.538;13.820;2022-10-17T13:43:51;23.20;68.70
44843;DHT22;31884;52.538;13.820;2022-10-17T13:46:25;23.20;69.50
44843;DHT22;31884;52.538;13.820;2022-10-17T13:48:52;23.20;69.10
44843;DHT22;31884;52.538;13.820;2022-10-17T13:51:18;23.10;69.10
44843;DHT22;31884;52.538;13.820;2022-10-17T13:53:44;23.10;68.20
44843;DHT22;31884;52.538;13.820;2022-10-17T13:58:42;23.00;69.00
44843;DHT22;31884;52.538;13.820;2022-10-17T14:01:09;23.10;68.10
44843;DHT22;31884;52.538;13.820;2022-10-17T14:03:36;23.10;68.60
44843;DHT22;31884;52.538;13.820;2022-10-17T14:06:10;23.10;68.10
44843;DHT22;31884;52.538;13.820;2022-10-17T14:08:37;23.10;68.30
44843;DHT22;31884;52.538;13.820;2022-10-17T14:11:13;23.10;68.10
44843;DHT22;31884;52.538;13.820;2022-10-17T14:13:39;23.10;67.50
44843;DHT22;31884;52.538;13.820;2022-10-17T14:16:05;23.10;68.00
44843;DHT22;31884;52.538;13.820;2022-10-17T14:18:35;23.10;67.60
44843;DHT22;31884;52.538;13.820;2022-10-17T14:21:01;23.00;66.90
44843;DHT22;31884;52.538;13.820;2022-10-17T14:23:34;23.00;67.30
44843;DHT22;31884;52.538;13.820;2022-10-17T14:26:19;23.00;67.40
44843;DHT22;31884;52.538;13.820;2022-10-17T14:31:34;23.00;67.70
44843;DHT22;31884;52.538;13.820;2022-10-17T14:34:02;22.90;68.20
44843;DHT22;31884;52.538;13.820;2022-10-17T14:36:32;22.90;68.00
44843;DHT22;31884;52.538;13.820;2022-10-17T14:38:58;22.90;68.90
44843;DHT22;31884;52.538;13.820;2022-10-17T14:41:26;22.90;69.20
44843;DHT22;31884;52.538;13.820;2022-10-17T14:44:02;22.80;69.80
44843;DHT22;31884;52.538;13.820;2022-10-17T14:46:29;22.80;70.10
44843;DHT22;31884;52.538;13.820;2022-10-17T14:49:01;22.80;70.30
44843;DHT22;31884;52.538;13.820;2022-10-17T14:51:28;22.70;70.80
44843;DHT22;31884;52.538;13.820;2022-10-17T14:54:16;22.70;70.50
44843;DHT22;31884;52.538;13.820;2022-10-17T14:56:49;22.70;70.50
44843;DHT22;31884;52.538;13.820;2022-10-17T14:59:15;22.70;71.10
44843;DHT22;31884;52.538;13.820;2022-10-17T15:01:43;22.70;71.40
44843;DHT22;31884;52.538;13.820;2022-10-17T15:04:08;22.60;71.40
44843;DHT22;31884;52.538;13.820;2022-10-17T15:06:35;22.60;72.00
44843;DHT22;31884;52.538;13.820;2022-10-17T15:09:01;22.50;72.50
44843;DHT22;31884;52.538;13.820;2022-10-17T15:11:28;22.40;73.00
44843;DHT22;31884;52.538;13.820;2022-10-17T15:13:54;22.30;73.60
44843;DHT22;31884;52.538;13.820;2022-10-17T15:16:29;22.20;74.20
44843;DHT22;31884;52.538;13.820;2022-10-17T15:18:55;22.10;75.10
44843;DHT22;31884;52.538;13.820;2022-10-17T15:21:24;22.00;75.60
44843;DHT22;31884;52.538;13.820;2022-10-17T15:23:50;22.00;76.40
44843;DHT22;31884;52.538;13.820;2022-10-17T15:26:21;21.90;77.00
44843;DHT22;31884;52.538;13.820;2022-10-17T15:28:48;21.80;77.70
44843;DHT22;31884;52.538;13.820;2022-10-17T15:31:17;21.70;78.70
44843;DHT22;31884;52.538;13.820;2022-10-17T15:33:43;21.60;79.30
44843;DHT22;31884;52.538;13.820;2022-10-17T15:38:53;21.40;82.50
44843;DHT22;31884;52.538;13.820;2022-10-17T15:41:20;21.30;81.70
44843;DHT22;31884;52.538;13.820;2022-10-17T15:43:47;21.20;82.60
44843;DHT22;31884;52.538;13.820;2022-10-17T15:46:20;21.20;84.00
44843;DHT22;31884;52.538;13.820;2022-10-17T15:48:47;21.10;84.90
44843;DHT22;31884;52.538;13.820;2022-10-17T15:51:13;20.90;85.70
44843;DHT22;31884;52.538;13.820;2022-10-17T15:53:38;20.80;87.10
44843;DHT22;31884;52.538;13.820;2022-10-17T15:56:05;20.70;88.10
44843;DHT22;31884;52.538;13.820;2022-10-17T15:58:38;20.60;89.00
44843;DHT22;31884;52.538;13.820;2022-10-17T16:01:05;20.60;90.50
44843;DHT22;31884;52.538;13.820;2022-10-17T16:03:31;20.50;90.70
44843;DHT22;31884;52.538;13.820;2022-10-17T16:05:57;20.40;90.90
44843;DHT22;31884;52.538;13.820;2022-10-17T16:08:23;20.30;91.90
44843;DHT22;31884;52.538;13.820;2022-10-17T16:10:49;20.20;92.60
44843;DHT22;31884;52.538;13.820;2022-10-17T16:13:21;20.10;93.30
44843;DHT22;31884;52.538;13.820;2022-10-17T16:15:47;20.00;93.80
44843;DHT22;31884;52.538;13.820;2022-10-17T16:18:12;19.80;94.00
44843;DHT22;31884;52.538;13.820;2022-10-17T16:20:38;19.80;95.00
44843;DHT22;31884;52.538;13.820;2022-10-17T16:23:04;19.70;95.70
44843;DHT22;31884;52.538;13.820;2022-10-17T16:25:30;19.60;95.90
44843;DHT22;31884;52.538;13.820;2022-10-17T16:27:58;19.50;96.40
44843;DHT22;31884;52.538;13.820;2022-10-17T16:30:26;19.40;96.60
44843;DHT22;31884;52.538;13.820;2022-10-17T16:32:53;19.40;96.90
44843;DHT22;31884;52.538;13.820;2022-10-17T16:35:21;19.30;97.40
44843;DHT22;31884;52.538;13.820;2022-10-17T16:37:47;19.20;98.30
44843;DHT22;31884;52.538;13.820;2022-10-17T16:40:13;19.10;98.30
44843;DHT22;31884;52.538;13.820;2022-10-17T16:42:39;19.10;98.10
44843;DHT22;31884;52.538;13.820;2022-10-17T16:45:05;19.00;99.20
44843;DHT22;31884;52.538;13.820;2022-10-17T16:47:30;19.00;99.90